BHM weather

Birmingham-Shuttlesworth International Airport
Birmingham, Alabama, United States

Public forecast

Using degrees Fahrenheit for public forecast. Weather courtesy of forecast.io.

METAR (pilot weather report)

Retrieved 2019/03/19 13:53 UTC (42 minutes ago):

KBHM 191353Z 05008KT 10SM SCT250 08/M07 A3040 RMK AO2 SLP295 T00781067

TAF (pilot weather forecast)

Retrieved 2019/03/19 12:22 UTC (2 hours ago):

TAF KBHM 191120Z 1912/2012 02004KT P6SM SCT250 FM191500 05009KT P6SM SCT250 FM200000 05002KT P6SM SKC